Shamrock Lakes, Indiana
Current Conditions -  °F | °C
As of 1:53 PM on Thursday 30 Oct 2014 (Local Time) from KMIE Reporting Station
Broken Clouds Broken Clouds  
Wind Chill: 47°   Ceiling: 3700
Heat Index: 49°   Visibility: 10mi
Dew Point: 33°   Wind: 5mph
Humidity: 54%   Direction: 270°W
Pressure: 30.12"   Gusts: NA
Location:  40.4568°N, 85.3505°W
Report Text: KMIE 301753Z 27004KT 10SM BKN037 09/01 A3012 RMK AO2 SLP200 T00940006 10094 20061 58014
Loading
Personal Weather Stations






























Interactive Weather Map
Tropical Storm Tracking
New forecast layout! Learn more

10-Day Weather Forecast

Advertisements
Track Severe Weather on mobile